createdAt,value
2019-03-20T00:02:31.827Z,2
2019-03-20T00:07:34.321Z,2
2019-03-20T00:12:36.826Z,2
2019-03-20T00:17:39.218Z,2
2019-03-20T00:22:43.084Z,2
2019-03-20T00:27:44.152Z,3
2019-03-20T00:32:46.692Z,3
2019-03-20T00:37:49.064Z,3
2019-03-20T00:42:51.608Z,3
2019-03-20T00:47:53.999Z,3
2019-03-20T00:52:56.461Z,2
2019-03-20T00:57:59.204Z,2
2019-03-20T01:03:01.475Z,2
2019-03-20T01:08:03.909Z,3
2019-03-20T01:13:06.407Z,3
2019-03-20T01:18:08.890Z,3
2019-03-20T01:23:11.289Z,3
2019-03-20T01:28:13.726Z,2
2019-03-20T01:33:16.244Z,2
2019-03-20T01:38:18.665Z,3
2019-03-20T01:43:21.178Z,2
2019-03-20T01:48:23.608Z,3
2019-03-20T01:53:26.033Z,2
2019-03-20T01:58:28.514Z,2
2019-03-20T02:03:30.956Z,3
2019-03-20T02:08:33.504Z,2
2019-03-20T02:13:35.997Z,4
2019-03-20T02:18:38.349Z,2
2019-03-20T02:23:40.801Z,2
2019-03-20T02:28:43.267Z,2
2019-03-20T02:33:45.759Z,2
2019-03-20T02:38:48.200Z,2
2019-03-20T02:43:50.958Z,2
2019-03-20T02:48:53.130Z,2
2019-03-20T02:53:55.586Z,2
2019-03-20T02:58:58.094Z,2
2019-03-20T03:04:00.522Z,3
2019-03-20T03:09:02.994Z,3
2019-03-20T03:14:05.686Z,4
2019-03-20T03:19:07.925Z,3
2019-03-20T03:24:10.361Z,3
2019-03-20T03:29:12.808Z,3
2019-03-20T03:34:15.349Z,3
2019-03-20T03:39:17.722Z,2
2019-03-20T03:44:20.287Z,3
2019-03-20T03:49:22.701Z,2
2019-03-20T03:54:25.117Z,3
2019-03-20T03:59:27.899Z,3
2019-03-20T04:04:30.054Z,4
2019-03-20T04:09:32.506Z,3
2019-03-20T04:14:35.017Z,2
2019-03-20T04:19:37.387Z,3
2019-03-20T04:24:39.859Z,4
2019-03-20T04:29:42.304Z,4
2019-03-20T04:34:44.821Z,4
2019-03-20T04:39:47.209Z,4
2019-03-20T04:44:49.904Z,7
2019-03-20T04:49:52.113Z,8
2019-03-20T04:54:54.580Z,11
2019-03-20T04:59:57.356Z,12
2019-03-20T05:04:59.567Z,5
2019-03-20T05:10:02.063Z,5
2019-03-20T05:15:04.435Z,3
2019-03-20T05:20:06.887Z,3
2019-03-20T05:25:09.378Z,4
2019-03-20T05:35:14.242Z,5
2019-03-20T05:40:16.729Z,3
2019-03-20T05:45:19.244Z,4
2019-03-20T05:50:21.608Z,6
2019-03-20T05:55:24.064Z,6
2019-03-20T06:00:26.678Z,5
2019-03-20T06:05:29.027Z,5
2019-03-20T06:10:31.461Z,5
2019-03-20T06:15:33.968Z,4
2019-03-20T06:20:36.345Z,5
2019-03-20T06:25:38.842Z,5
2019-03-20T06:30:41.322Z,4
2019-03-20T06:35:43.722Z,5
2019-03-20T06:40:46.275Z,4
2019-03-20T06:45:48.733Z,3
2019-03-20T06:55:53.558Z,3
2019-03-20T07:00:56.040Z,2
2019-03-20T07:05:58.518Z,3
2019-03-20T07:11:00.973Z,30
2019-03-20T07:16:03.469Z,9
2019-03-20T07:21:05.852Z,3
2019-03-20T07:26:08.324Z,2
2019-03-20T07:31:15.504Z,3
2019-03-20T07:36:13.224Z,3
2019-03-20T07:41:15.696Z,8
2019-03-20T07:46:18.253Z,3
2019-03-20T07:51:20.620Z,2
2019-03-20T07:56:23.151Z,2
2019-03-20T08:01:25.822Z,2
2019-03-20T08:06:27.976Z,2
2019-03-20T08:11:30.553Z,2
2019-03-20T08:16:33.009Z,2
2019-03-20T08:21:35.352Z,2
2019-03-20T08:26:37.872Z,2
2019-03-20T08:31:40.268Z,1
2019-03-20T08:36:42.851Z,1
2019-03-20T08:41:45.295Z,1
2019-03-20T08:46:47.784Z,1
2019-03-20T08:51:50.111Z,1
2019-03-20T08:56:52.574Z,1
2019-03-20T09:01:55.423Z,1
2019-03-20T09:06:57.501Z,1
2019-03-20T09:12:00.013Z,2
2019-03-20T09:17:02.546Z,1
2019-03-20T09:22:04.929Z,1
2019-03-20T09:27:07.341Z,1
2019-03-20T09:32:10.068Z,1
2019-03-20T09:37:12.337Z,1
2019-03-20T09:42:14.777Z,1
2019-03-20T09:47:17.244Z,2
2019-03-20T09:52:19.630Z,2
2019-03-20T09:57:22.082Z,1
2019-03-20T10:02:24.818Z,2
2019-03-20T10:07:26.985Z,3
2019-03-20T10:12:29.503Z,3
2019-03-20T10:17:32.063Z,3
2019-03-20T10:22:34.414Z,4
2019-03-20T10:27:36.902Z,2
2019-03-20T10:32:39.567Z,2
2019-03-20T10:37:41.751Z,3
2019-03-20T10:42:44.378Z,3
2019-03-20T10:47:46.758Z,2
2019-03-20T10:52:49.133Z,3
2019-03-20T10:57:51.601Z,3
2019-03-20T11:02:54.357Z,3
2019-03-20T11:12:58.952Z,3
2019-03-20T11:18:01.638Z,2
2019-03-20T11:23:03.932Z,4
2019-03-20T11:28:06.341Z,3
2019-03-20T11:33:09.091Z,2
2019-03-20T11:38:11.264Z,3
2019-03-20T11:43:13.772Z,3
2019-03-20T11:48:16.345Z,3
2019-03-20T11:53:18.699Z,3
2019-03-20T11:58:21.098Z,3
2019-03-20T12:03:23.549Z,3
2019-03-20T12:08:26.056Z,3
2019-03-20T12:13:28.555Z,2
2019-03-20T12:18:31.021Z,2
2019-03-20T12:23:33.947Z,2
2019-03-20T12:28:35.929Z,2
2019-03-20T12:33:38.312Z,2
2019-03-20T12:38:40.791Z,2
2019-03-20T12:43:45.380Z,2
2019-03-20T12:48:45.700Z,2
2019-03-20T12:58:50.730Z,3
2019-03-20T13:03:53.069Z,2
2019-03-20T13:08:55.540Z,3
2019-03-20T13:13:57.974Z,2
2019-03-20T13:19:00.762Z,3
2019-03-20T13:24:02.898Z,2
2019-03-20T13:29:05.375Z,2
2019-03-20T13:34:07.902Z,3
2019-03-20T13:39:10.267Z,2
2019-03-20T13:44:12.807Z,2
2019-03-20T13:49:15.597Z,3
2019-03-20T13:54:17.655Z,1
2019-03-20T13:59:20.098Z,2
2019-03-20T14:04:22.656Z,2
2019-03-20T14:09:25.114Z,2
2019-03-20T14:14:27.545Z,2
2019-03-20T14:19:30.422Z,2
2019-03-20T14:24:32.425Z,2
2019-03-20T14:29:34.858Z,2
2019-03-20T14:34:37.389Z,2
2019-03-20T14:39:39.899Z,2
2019-03-20T14:49:45.037Z,2
2019-03-20T14:54:47.147Z,2
2019-03-20T14:59:49.606Z,3
2019-03-20T15:04:52.238Z,3
2019-03-20T15:09:54.555Z,2
2019-03-20T15:14:56.973Z,2
2019-03-20T15:19:59.742Z,2
2019-03-20T15:25:01.956Z,2
2019-03-20T15:30:04.355Z,2
2019-03-20T15:35:07.076Z,3
2019-03-20T15:40:09.255Z,2
2019-03-20T15:45:11.752Z,2
2019-03-20T15:50:14.458Z,3
2019-03-20T15:55:16.637Z,2
2019-03-20T16:05:21.570Z,3
2019-03-20T16:10:24.018Z,2
2019-03-20T16:15:26.529Z,2
2019-03-20T16:20:28.920Z,2
2019-03-20T16:25:31.418Z,2
2019-03-20T16:30:33.855Z,2
2019-03-20T16:35:36.589Z,2
2019-03-20T16:40:38.758Z,2
2019-03-20T16:45:41.288Z,2
2019-03-20T16:50:43.924Z,2
2019-03-20T16:55:46.424Z,2
2019-03-20T17:00:48.576Z,3
2019-03-20T17:05:51.048Z,2
2019-03-20T17:10:53.596Z,2
2019-03-20T17:15:55.950Z,1
2019-03-20T17:20:58.420Z,2
2019-03-20T17:26:00.883Z,2
2019-03-20T17:31:03.312Z,2
2019-03-20T17:36:06.355Z,2
2019-03-20T17:41:08.269Z,4
2019-03-20T17:46:10.709Z,4
2019-03-20T17:51:13.140Z,6
2019-03-20T17:56:15.649Z,8
2019-03-20T18:01:18.057Z,15
2019-03-20T18:06:21.051Z,11
2019-03-20T18:11:23.011Z,10
2019-03-20T18:16:25.447Z,12
2019-03-20T18:21:27.891Z,7
2019-03-20T18:26:30.352Z,9
2019-03-20T18:31:32.824Z,5
2019-03-20T18:36:35.646Z,10
2019-03-20T18:41:37.734Z,10
2019-03-20T18:46:40.230Z,12
2019-03-20T18:51:42.647Z,13
2019-03-20T18:56:45.091Z,10
2019-03-20T19:01:47.602Z,11
2019-03-20T19:06:50.313Z,13
2019-03-20T19:11:52.480Z,7
2019-03-20T19:16:54.951Z,11
2019-03-20T19:21:57.427Z,11
2019-03-20T19:26:59.858Z,11
2019-03-20T19:32:02.388Z,10
2019-03-20T19:42:07.383Z,11
2019-03-20T19:47:09.761Z,11
2019-03-20T19:52:12.242Z,9
2019-03-20T19:57:14.650Z,8
2019-03-20T20:02:17.101Z,6
2019-03-20T20:07:19.676Z,6
2019-03-20T20:12:30.757Z,9
2019-03-20T20:17:24.497Z,10
2019-03-20T20:22:26.980Z,9
2019-03-20T20:27:29.440Z,10
2019-03-20T20:32:31.885Z,10
2019-03-20T20:42:42.719Z,8
2019-03-20T20:52:42.051Z,8
2019-03-20T20:57:44.227Z,7
2019-03-20T21:02:46.779Z,21
2019-03-20T21:07:49.258Z,12
2019-03-20T21:12:56.541Z,6
2019-03-20T21:17:54.070Z,6
2019-03-20T21:22:56.565Z,8
2019-03-20T21:27:58.980Z,7
2019-03-20T21:33:01.473Z,6
2019-03-20T21:38:03.959Z,6
2019-03-20T21:43:07.411Z,7
2019-03-20T21:48:08.854Z,7
2019-03-20T21:53:11.302Z,7
2019-03-20T21:58:13.789Z,7
2019-03-20T22:03:16.298Z,6
2019-03-20T22:08:18.770Z,7
2019-03-20T22:13:21.194Z,6
2019-03-20T22:18:23.605Z,7
2019-03-20T22:23:26.090Z,7
2019-03-20T22:28:28.538Z,8
2019-03-20T22:33:31.084Z,7
2019-03-20T22:38:33.482Z,6
2019-03-20T22:43:36.006Z,7
2019-03-20T22:48:38.385Z,7
2019-03-20T22:53:40.918Z,7
2019-03-20T22:58:43.289Z,7
2019-03-20T23:03:45.782Z,7
2019-03-20T23:08:48.239Z,6
2019-03-20T23:13:51.054Z,7
2019-03-20T23:18:53.201Z,7
2019-03-20T23:23:55.696Z,8
2019-03-20T23:28:58.086Z,7
2019-03-20T23:34:00.620Z,7
2019-03-20T23:39:03.000Z,8
2019-03-20T23:44:05.765Z,6
2019-03-20T23:49:07.902Z,6
2019-03-20T23:54:10.372Z,7
2019-03-20T23:59:12.832Z,7
